createdAt,value
2023-04-10T00:00:11.166Z,0
2023-04-10T00:01:11.759Z,0
2023-04-10T00:02:12.509Z,0
2023-04-10T00:03:13.238Z,0
2023-04-10T00:04:14.125Z,0
2023-04-10T00:05:15.081Z,0
2023-04-10T00:06:15.795Z,0
2023-04-10T00:07:16.385Z,0
2023-04-10T00:08:16.980Z,0
2023-04-10T00:09:17.593Z,0
2023-04-10T00:10:18.173Z,0
2023-04-10T00:11:18.785Z,0
2023-04-10T00:12:19.375Z,0
2023-04-10T00:13:19.976Z,0
2023-04-10T00:14:20.577Z,0
2023-04-10T00:15:21.202Z,0
2023-04-10T00:16:21.795Z,0
2023-04-10T00:17:22.424Z,0
2023-04-10T00:18:22.979Z,0
2023-04-10T00:19:23.575Z,0
2023-04-10T00:20:24.170Z,0
2023-04-10T00:21:24.784Z,0
2023-04-10T00:22:25.400Z,0
2023-04-10T00:23:25.998Z,0
2023-04-10T00:24:26.603Z,0
2023-04-10T00:25:27.203Z,0
2023-04-10T00:26:27.812Z,0
2023-04-10T00:27:28.408Z,0
2023-04-10T00:28:29.003Z,0
2023-04-10T00:29:29.613Z,0
2023-04-10T00:30:30.214Z,0
2023-04-10T00:31:30.880Z,0
2023-04-10T00:32:31.474Z,0
2023-04-10T00:33:32.023Z,0
2023-04-10T00:34:32.643Z,0
2023-04-10T00:35:33.279Z,0
2023-04-10T00:36:33.830Z,0
2023-04-10T00:37:34.435Z,0
2023-04-10T00:38:35.025Z,0
2023-04-10T00:39:35.678Z,0
2023-04-10T00:40:36.274Z,0
2023-04-10T00:41:36.888Z,0
2023-04-10T00:42:37.478Z,0
2023-04-10T00:43:38.076Z,0
2023-04-10T00:44:38.668Z,0
2023-04-10T00:45:39.315Z,0
2023-04-10T00:46:39.872Z,0
2023-04-10T00:47:40.490Z,0
2023-04-10T00:48:41.065Z,0
2023-04-10T00:49:41.660Z,0
2023-04-10T00:50:42.276Z,0
2023-04-10T00:51:42.868Z,0
2023-04-10T00:52:43.464Z,0
2023-04-10T00:53:44.062Z,0
2023-04-10T00:54:44.684Z,0
2023-04-10T00:55:45.276Z,0
2023-04-10T00:56:45.871Z,0
2023-04-10T00:57:46.467Z,0
2023-04-10T00:58:47.064Z,0
2023-04-10T00:59:47.680Z,0
2023-04-10T01:00:48.283Z,0
2023-04-10T01:01:49.021Z,0
2023-04-10T01:02:49.823Z,0
2023-04-10T01:03:50.520Z,0
2023-04-10T01:04:51.090Z,0
2023-04-10T01:05:51.683Z,0
2023-04-10T01:06:52.278Z,0
2023-04-10T01:07:52.890Z,0
2023-04-10T01:08:53.484Z,0
2023-04-10T01:09:54.080Z,0
2023-04-10T01:10:54.677Z,0
2023-04-10T01:11:55.323Z,0
2023-04-10T01:12:55.897Z,0
2023-04-10T01:13:56.499Z,0
2023-04-10T01:14:57.121Z,0
2023-04-10T01:15:57.715Z,0
2023-04-10T01:16:58.375Z,0
2023-04-10T01:17:58.965Z,0
2023-04-10T01:18:59.532Z,0
2023-04-10T01:20:00.170Z,0
2023-04-10T01:21:00.762Z,0
2023-04-10T01:22:01.354Z,0
2023-04-10T01:23:01.946Z,0
2023-04-10T01:24:02.543Z,0
2023-04-10T01:25:03.152Z,0
2023-04-10T01:26:03.737Z,0
2023-04-10T01:27:04.331Z,0
2023-04-10T01:28:04.924Z,0
2023-04-10T01:29:05.521Z,0
2023-04-10T01:30:06.112Z,0
2023-04-10T01:31:06.832Z,0
2023-04-10T01:32:07.387Z,0
2023-04-10T01:33:07.991Z,0
2023-04-10T01:34:08.625Z,0
2023-04-10T01:35:09.179Z,0
2023-04-10T01:36:09.811Z,0
2023-04-10T01:37:10.401Z,0
2023-04-10T01:38:11.011Z,0
2023-04-10T01:39:11.607Z,0
2023-04-10T01:40:12.222Z,0
2023-04-10T01:41:12.817Z,0
2023-04-10T01:42:13.436Z,0
2023-04-10T01:43:14.030Z,0
2023-04-10T01:44:14.638Z,0
2023-04-10T01:45:15.236Z,0
2023-04-10T01:46:15.868Z,0
2023-04-10T01:47:16.436Z,0
2023-04-10T01:48:17.041Z,0
2023-04-10T01:49:17.640Z,0
2023-04-10T01:50:18.231Z,0
2023-04-10T01:51:18.827Z,0
2023-04-10T01:52:19.424Z,0
2023-04-10T01:53:20.056Z,0
2023-04-10T01:54:20.626Z,0
2023-04-10T01:55:21.223Z,0
2023-04-10T01:56:21.820Z,0
2023-04-10T01:57:22.416Z,0
2023-04-10T01:58:23.017Z,0
2023-04-10T01:59:23.607Z,0
2023-04-10T02:00:24.279Z,0
2023-04-10T02:01:29.728Z,0
2023-04-10T02:02:26.535Z,0
2023-04-10T02:03:27.510Z,0
2023-04-10T02:04:28.352Z,0
2023-04-10T02:05:28.987Z,0
2023-04-10T02:06:29.585Z,0
2023-04-10T02:07:30.179Z,0
2023-04-10T02:08:30.774Z,0
2023-04-10T02:09:31.379Z,0
2023-04-10T02:10:31.966Z,0
2023-04-10T02:11:32.567Z,0
2023-04-10T02:12:33.197Z,0
2023-04-10T02:13:33.776Z,0
2023-04-10T02:14:34.370Z,0
2023-04-10T02:15:34.989Z,0
2023-04-10T02:16:35.626Z,0
2023-04-10T02:17:36.216Z,0
2023-04-10T02:18:36.820Z,0
2023-04-10T02:19:37.414Z,0
2023-04-10T02:20:38.028Z,0
2023-04-10T02:21:38.625Z,0
2023-04-10T02:22:39.232Z,0
2023-04-10T02:23:39.816Z,0
2023-04-10T02:24:40.410Z,0
2023-04-10T02:25:41.007Z,0
2023-04-10T02:26:41.603Z,0
2023-04-10T02:27:42.206Z,0
2023-04-10T02:28:42.795Z,0
2023-04-10T02:29:43.394Z,0
2023-04-10T02:30:43.988Z,0
2023-04-10T02:31:44.597Z,0
2023-04-10T02:32:45.192Z,0
2023-04-10T02:33:45.803Z,0
2023-04-10T02:34:46.388Z,0
2023-04-10T02:35:47.007Z,0
2023-04-10T02:36:47.583Z,0
2023-04-10T02:37:48.175Z,0
2023-04-10T02:38:48.768Z,0
2023-04-10T02:39:49.365Z,0
2023-04-10T02:40:49.960Z,0
2023-04-10T02:41:50.558Z,0
2023-04-10T02:42:51.167Z,0
2023-04-10T02:43:51.959Z,0
2023-04-10T02:44:52.616Z,0
2023-04-10T02:45:53.220Z,0
2023-04-10T02:46:53.840Z,0
2023-04-10T02:47:54.444Z,0
2023-04-10T02:48:54.998Z,0
2023-04-10T02:49:55.596Z,0
2023-04-10T02:50:56.194Z,0
2023-04-10T02:51:56.806Z,0
2023-04-10T02:52:57.419Z,0
2023-04-10T02:53:58.013Z,0
2023-04-10T02:54:58.610Z,0
2023-04-10T02:55:59.201Z,0
2023-04-10T02:56:59.910Z,0
2023-04-10T02:58:00.507Z,0
2023-04-10T02:59:01.097Z,0
2023-04-10T03:00:01.693Z,0
2023-04-10T03:01:02.286Z,0
2023-04-10T03:02:03.006Z,0
2023-04-10T03:03:03.757Z,0
2023-04-10T03:04:04.509Z,0
2023-04-10T03:05:05.110Z,0
2023-04-10T03:06:07.876Z,0
2023-04-10T03:07:07.305Z,0
2023-04-10T03:08:07.895Z,0
2023-04-10T03:09:08.484Z,0
2023-04-10T03:10:09.079Z,0
2023-04-10T03:11:09.669Z,0
2023-04-10T03:12:10.277Z,0
2023-04-10T03:13:10.857Z,0
2023-04-10T03:14:11.460Z,0
2023-04-10T03:15:12.081Z,0
2023-04-10T03:16:12.678Z,0
2023-04-10T03:17:13.264Z,0
2023-04-10T03:18:13.883Z,0
2023-04-10T03:19:14.468Z,0
2023-04-10T03:20:15.085Z,0
2023-04-10T03:21:15.677Z,0
2023-04-10T03:22:16.297Z,0
2023-04-10T03:23:16.898Z,0
2023-04-10T03:24:17.482Z,0
2023-04-10T03:25:18.105Z,0
2023-04-10T03:26:18.708Z,0
2023-04-10T03:27:19.288Z,0
2023-04-10T03:28:19.884Z,0
2023-04-10T03:29:20.478Z,0
2023-04-10T03:30:21.077Z,0
2023-04-10T03:31:21.741Z,0
2023-04-10T03:32:22.319Z,0
2023-04-10T03:33:22.989Z,0
2023-04-10T03:34:23.572Z,0
2023-04-10T03:35:24.194Z,0
2023-04-10T03:36:24.809Z,0
2023-04-10T03:37:25.417Z,0
2023-04-10T03:38:26.014Z,0
2023-04-10T03:39:26.620Z,0
2023-04-10T03:40:27.230Z,0
2023-04-10T03:41:27.818Z,0
2023-04-10T03:42:28.432Z,0
2023-04-10T03:43:29.027Z,0
2023-04-10T03:44:29.624Z,0
2023-04-10T03:45:30.217Z,0
2023-04-10T03:46:30.919Z,0
2023-04-10T03:47:31.511Z,0
2023-04-10T03:48:32.091Z,0
2023-04-10T03:49:32.685Z,0
2023-04-10T03:50:33.284Z,0
2023-04-10T03:51:33.878Z,0
2023-04-10T03:52:34.477Z,0
2023-04-10T03:53:35.158Z,0
2023-04-10T03:54:35.701Z,0
2023-04-10T03:55:36.294Z,0
2023-04-10T03:56:36.888Z,0
2023-04-10T03:57:37.486Z,0
2023-04-10T03:58:38.086Z,0
2023-04-10T03:59:39.100Z,0
2023-04-10T04:00:39.681Z,0
2023-04-10T04:01:40.397Z,0
2023-04-10T04:02:41.092Z,0
2023-04-10T04:03:41.897Z,0
2023-04-10T04:04:42.677Z,4
2023-04-10T04:05:43.154Z,4
2023-04-10T04:06:43.752Z,0
2023-04-10T04:07:44.352Z,4
2023-04-10T04:08:44.944Z,4
2023-04-10T04:09:45.538Z,4
2023-04-10T04:10:46.136Z,8
2023-04-10T04:11:46.729Z,4
2023-04-10T04:12:47.329Z,8
2023-04-10T04:13:47.937Z,12
2023-04-10T04:14:48.534Z,12
2023-04-10T04:15:49.156Z,16
2023-04-10T04:16:49.778Z,16
2023-04-10T04:17:50.393Z,20
2023-04-10T04:18:50.957Z,24
2023-04-10T04:19:51.556Z,28
2023-04-10T04:20:52.153Z,32
2023-04-10T04:21:52.808Z,40
2023-04-10T04:22:53.368Z,48
2023-04-10T04:23:54.080Z,56
2023-04-10T04:24:54.724Z,64
2023-04-10T04:25:55.347Z,76
2023-04-10T04:26:55.916Z,88
2023-04-10T04:27:56.541Z,100
2023-04-10T04:28:57.136Z,116
2023-04-10T04:29:57.777Z,136
2023-04-10T04:30:58.349Z,156
2023-04-10T04:31:59.041Z,180
2023-04-10T04:32:59.657Z,204
2023-04-10T04:34:00.237Z,228
2023-04-10T04:35:00.835Z,252
2023-04-10T04:36:01.454Z,284
2023-04-10T04:37:02.120Z,320
2023-04-10T04:38:02.682Z,364
2023-04-10T04:39:03.287Z,408
2023-04-10T04:40:03.940Z,460
2023-04-10T04:41:04.550Z,512
2023-04-10T04:42:05.184Z,572
2023-04-10T04:43:05.765Z,620
2023-04-10T04:44:06.386Z,680
2023-04-10T04:45:07.000Z,748
2023-04-10T04:46:07.666Z,836
2023-04-10T04:47:08.251Z,924
2023-04-10T04:48:08.852Z,1012
2023-04-10T04:49:09.470Z,1116
2023-04-10T04:50:10.075Z,1216
2023-04-10T04:51:10.693Z,1312
2023-04-10T04:52:11.305Z,1396
2023-04-10T04:53:11.907Z,1480
2023-04-10T04:54:12.514Z,1568
2023-04-10T04:55:13.103Z,1676
2023-04-10T04:56:13.703Z,1792
2023-04-10T04:57:14.305Z,1904
2023-04-10T04:58:14.911Z,2012
2023-04-10T04:59:15.523Z,2108
2023-04-10T05:00:16.128Z,2200
2023-04-10T05:01:16.776Z,2296
2023-04-10T05:02:17.548Z,2388
2023-04-10T05:03:18.420Z,2484
2023-04-10T05:04:19.381Z,2576
2023-04-10T05:05:19.991Z,2664
2023-04-10T05:06:20.615Z,2756
2023-04-10T05:07:21.222Z,2848
2023-04-10T05:08:21.847Z,2956
2023-04-10T05:09:22.451Z,3072
2023-04-10T05:10:23.046Z,3196
2023-04-10T05:11:23.650Z,3328
2023-04-10T05:12:24.248Z,3460
2023-04-10T05:13:24.869Z,3584
2023-04-10T05:14:25.507Z,3680
2023-04-10T05:15:26.131Z,3756
2023-04-10T05:16:26.706Z,3844
2023-04-10T05:17:27.313Z,3936
2023-04-10T05:18:27.918Z,4040
2023-04-10T05:19:28.522Z,4136
2023-04-10T05:20:29.143Z,4236
2023-04-10T05:21:29.760Z,4340
2023-04-10T05:22:30.364Z,4444
2023-04-10T05:23:30.962Z,4552
2023-04-10T05:24:31.562Z,4676
2023-04-10T05:25:32.167Z,4796
2023-04-10T05:26:32.762Z,4920
2023-04-10T05:27:33.363Z,5044
2023-04-10T05:28:33.977Z,5168
2023-04-10T05:29:34.580Z,5288
2023-04-10T05:30:35.163Z,5408
2023-04-10T05:31:35.785Z,5544
2023-04-10T05:32:36.409Z,5676
2023-04-10T05:33:36.993Z,5804
2023-04-10T05:34:37.633Z,5920
2023-04-10T05:35:38.288Z,6028
2023-04-10T05:36:38.852Z,6104
2023-04-10T05:37:39.454Z,6152
2023-04-10T05:38:40.061Z,6196
2023-04-10T05:39:40.655Z,6228
2023-04-10T05:40:41.356Z,6248
2023-04-10T05:41:41.943Z,6264
2023-04-10T05:42:42.544Z,6280
2023-04-10T05:43:43.155Z,6296
2023-04-10T05:44:43.748Z,6320
2023-04-10T05:45:44.344Z,6364
2023-04-10T05:46:45.064Z,6428
2023-04-10T05:47:45.675Z,6492
2023-04-10T05:48:46.251Z,6588
2023-04-10T05:49:46.855Z,6676
2023-04-10T05:50:47.471Z,6772
2023-04-10T05:51:48.052Z,6868
2023-04-10T05:52:48.657Z,6980
2023-04-10T05:53:49.251Z,7124
2023-04-10T05:54:49.854Z,7344
2023-04-10T05:55:50.474Z,7568
2023-04-10T05:56:51.074Z,7876
2023-04-10T05:57:51.672Z,8160
2023-04-10T05:58:52.434Z,8396
2023-04-10T05:59:52.891Z,8648
2023-04-10T06:00:53.493Z,8944
2023-04-10T06:01:54.173Z,9236
2023-04-10T06:02:54.795Z,9528
2023-04-10T06:03:55.521Z,9816
2023-04-10T06:04:56.248Z,10116
2023-04-10T06:05:56.802Z,10404
2023-04-10T06:06:57.404Z,10740
2023-04-10T06:07:58.608Z,11060
2023-04-10T06:08:59.191Z,11408
2023-04-10T06:09:59.790Z,11828
2023-04-10T06:11:00.419Z,12288
2023-04-10T06:12:01.014Z,12724
2023-04-10T06:13:01.610Z,13092
2023-04-10T06:14:02.215Z,13448
2023-04-10T06:15:02.826Z,13836
2023-04-10T06:16:03.468Z,14148
2023-04-10T06:17:04.034Z,14492
2023-04-10T06:18:04.671Z,14840
2023-04-10T06:19:05.301Z,15008
2023-04-10T06:20:05.904Z,15140
2023-04-10T06:21:06.513Z,15148
2023-04-10T06:22:07.106Z,15248
2023-04-10T06:23:07.709Z,15324
2023-04-10T06:24:08.330Z,15624
2023-04-10T06:25:08.959Z,15736
2023-04-10T06:26:09.540Z,15856
2023-04-10T06:27:10.149Z,15968
2023-04-10T06:28:10.767Z,16040
2023-04-10T06:29:11.353Z,15936
2023-04-10T06:30:11.958Z,15796
2023-04-10T06:31:12.617Z,15788
2023-04-10T06:32:13.209Z,15756
2023-04-10T06:33:13.843Z,15764
2023-04-10T06:34:14.419Z,15892
2023-04-10T06:35:15.021Z,15844
2023-04-10T06:36:15.644Z,15700
2023-04-10T06:37:16.246Z,15540
2023-04-10T06:38:16.923Z,15336
2023-04-10T06:39:17.780Z,15252
2023-04-10T06:40:18.063Z,15092
2023-04-10T06:41:18.665Z,14992
2023-04-10T06:42:19.288Z,15028
2023-04-10T06:43:19.891Z,15060
2023-04-10T06:44:20.494Z,14772
2023-04-10T06:45:21.095Z,14600
2023-04-10T06:46:21.727Z,14948
2023-04-10T06:47:22.312Z,15060
2023-04-10T06:48:22.899Z,15280
2023-04-10T06:49:23.502Z,15416
2023-04-10T06:50:24.103Z,15476
2023-04-10T06:51:24.707Z,15492
2023-04-10T06:52:25.309Z,15568
2023-04-10T06:53:25.912Z,15200
2023-04-10T06:54:26.514Z,15144
2023-04-10T06:55:27.137Z,14980
2023-04-10T06:56:27.739Z,15028
2023-04-10T06:57:28.335Z,14896
2023-04-10T06:58:28.951Z,15108
2023-04-10T06:59:29.548Z,14868
2023-04-10T07:00:30.174Z,15232
2023-04-10T07:01:30.746Z,15568
2023-04-10T07:02:31.453Z,15688
2023-04-10T07:03:32.099Z,16476
2023-04-10T07:04:32.677Z,16852
2023-04-10T07:05:33.272Z,17004
2023-04-10T07:06:33.877Z,16788
2023-04-10T07:07:34.493Z,16792
2023-04-10T07:08:35.093Z,17048
2023-04-10T07:09:35.697Z,17112
2023-04-10T07:10:36.304Z,17012
2023-04-10T07:11:36.899Z,17276
2023-04-10T07:12:37.517Z,17248
2023-04-10T07:13:38.137Z,17172
2023-04-10T07:14:38.742Z,17536
2023-04-10T07:15:39.355Z,18080
2023-04-10T07:16:39.998Z,19328
2023-04-10T07:17:40.620Z,19584
2023-04-10T07:18:41.187Z,20000
2023-04-10T07:19:41.778Z,20032
2023-04-10T07:20:42.380Z,19680
2023-04-10T07:21:42.989Z,20352
2023-04-10T07:22:43.610Z,20288
2023-04-10T07:23:44.232Z,20448
2023-04-10T07:24:44.826Z,21280
2023-04-10T07:25:45.428Z,22240
2023-04-10T07:26:46.048Z,24128
2023-04-10T07:27:46.654Z,24768
2023-04-10T07:28:47.255Z,24736
2023-04-10T07:29:47.859Z,28480
2023-04-10T07:30:48.475Z,29952
2023-04-10T07:31:49.147Z,29280
2023-04-10T07:32:49.886Z,30560
2023-04-10T07:33:50.674Z,28896
2023-04-10T07:34:51.246Z,26688
2023-04-10T07:35:51.900Z,25856
2023-04-10T07:36:52.463Z,24160
2023-04-10T07:37:53.067Z,24192
2023-04-10T07:38:53.900Z,23392
2023-04-10T07:39:54.626Z,21376
2023-04-10T07:40:55.227Z,22976
2023-04-10T07:41:55.854Z,24704
2023-04-10T07:42:56.447Z,24768
2023-04-10T07:43:57.049Z,26240
2023-04-10T07:44:57.667Z,27968
2023-04-10T07:45:58.314Z,27264
2023-04-10T07:46:58.964Z,27008
2023-04-10T07:47:59.640Z,28544
2023-04-10T07:49:00.224Z,28992
2023-04-10T07:50:00.836Z,29248
2023-04-10T07:51:01.473Z,27360
2023-04-10T07:52:02.060Z,24608
2023-04-10T07:53:02.666Z,27040
2023-04-10T07:54:03.263Z,33376
2023-04-10T07:55:03.866Z,32768
2023-04-10T07:56:04.468Z,27232
2023-04-10T07:57:05.068Z,31040
2023-04-10T07:58:05.676Z,39872
2023-04-10T07:59:06.272Z,40320
2023-04-10T08:00:06.891Z,35776
2023-04-10T08:01:07.506Z,36544
2023-04-10T08:02:08.190Z,39008
2023-04-10T08:03:09.038Z,41728
2023-04-10T08:04:09.565Z,43328
2023-04-10T08:05:10.276Z,42528
2023-04-10T08:06:10.829Z,41824
2023-04-10T08:07:11.431Z,45440
2023-04-10T08:08:12.039Z,46336
2023-04-10T08:09:12.661Z,39680
2023-04-10T08:10:13.276Z,34784
2023-04-10T08:11:13.862Z,36832
2023-04-10T08:12:14.474Z,41888
2023-04-10T08:13:15.099Z,41280
2023-04-10T08:14:18.057Z,37600
2023-04-10T08:15:17.310Z,38720
2023-04-10T08:16:17.942Z,42048
2023-04-10T08:17:18.536Z,43872
2023-04-10T08:18:19.139Z,45792
2023-04-10T08:19:19.748Z,46592
2023-04-10T08:20:20.338Z,47712
2023-04-10T08:21:20.940Z,45152
2023-04-10T08:22:21.543Z,41088
2023-04-10T08:23:22.154Z,38464
2023-04-10T08:24:22.748Z,41408
2023-04-10T08:25:23.372Z,45376
2023-04-10T08:26:23.973Z,48032
2023-04-10T08:27:24.581Z,50592
2023-04-10T08:28:25.171Z,56736
2023-04-10T08:29:25.793Z,60384
2023-04-10T08:30:26.371Z,55520
2023-04-10T08:31:27.036Z,47968
2023-04-10T08:32:27.679Z,48256
2023-04-10T08:33:28.239Z,57472
2023-04-10T08:34:28.849Z,68384
2023-04-10T08:35:29.461Z,73728
2023-04-10T08:36:30.078Z,69888
2023-04-10T08:37:30.663Z,62592
2023-04-10T08:38:31.269Z,60576
2023-04-10T08:39:31.874Z,63840
2023-04-10T08:40:32.468Z,66912
2023-04-10T08:41:33.073Z,63616
2023-04-10T08:42:34.647Z,58496
2023-04-10T08:43:35.265Z,61600
2023-04-10T08:44:35.871Z,67840
2023-04-10T08:45:36.492Z,69792
2023-04-10T08:46:37.210Z,66272
2023-04-10T08:47:37.841Z,64384
2023-04-10T08:48:38.443Z,64608
2023-04-10T08:49:39.039Z,60416
2023-04-10T08:50:39.658Z,54880
2023-04-10T08:51:40.242Z,51264
2023-04-10T08:52:40.845Z,51296
2023-04-10T08:53:41.446Z,56256
2023-04-10T08:54:42.044Z,64416
2023-04-10T08:55:42.666Z,72640
2023-04-10T08:56:43.295Z,70144
2023-04-10T08:57:50.890Z,58080
2023-04-10T08:58:45.466Z,51872
2023-04-10T08:59:46.102Z,55328
2023-04-10T09:00:46.750Z,67264
2023-04-10T09:01:47.410Z,75104
2023-04-10T09:02:48.092Z,72512
2023-04-10T09:03:48.895Z,65056
2023-04-10T09:04:49.383Z,63104
2023-04-10T09:05:49.913Z,70848
2023-04-10T09:06:50.512Z,77344
2023-04-10T09:07:51.114Z,75648
2023-04-10T09:08:51.715Z,69728
2023-04-10T09:09:52.325Z,62656
2023-04-10T09:10:54.508Z,60512
2023-04-10T09:11:54.514Z,63520
2023-04-10T09:12:55.112Z,71136
2023-04-10T09:13:55.912Z,85152
2023-04-10T09:14:56.331Z,92000
2023-04-10T09:15:56.965Z,93632
2023-04-10T09:16:57.549Z,91968
2023-04-10T09:17:58.232Z,87264
2023-04-10T09:18:58.767Z,91424
2023-04-10T09:19:59.374Z,96800
2023-04-10T09:20:59.970Z,89664
2023-04-10T09:22:00.589Z,73920
2023-04-10T09:23:01.191Z,72128
2023-04-10T09:24:01.832Z,65248
2023-04-10T09:25:02.400Z,58912
2023-04-10T09:26:03.000Z,58752
2023-04-10T09:27:03.596Z,69440
2023-04-10T09:28:04.200Z,67456
2023-04-10T09:29:04.809Z,47936
2023-04-10T09:30:05.407Z,53120
2023-04-10T09:31:06.058Z,55520
2023-04-10T09:32:06.642Z,51360
2023-04-10T09:33:07.276Z,60320
2023-04-10T09:34:07.870Z,65312
2023-04-10T09:35:08.463Z,66848
2023-04-10T09:36:09.076Z,65056
2023-04-10T09:37:09.663Z,63104
2023-04-10T09:38:10.284Z,77920
2023-04-10T09:39:10.889Z,79072
2023-04-10T09:40:11.488Z,75584
2023-04-10T09:41:12.091Z,79072
2023-04-10T09:42:12.693Z,84928
2023-04-10T09:43:13.293Z,87648
2023-04-10T09:44:13.901Z,86976
2023-04-10T09:45:14.494Z,82656
2023-04-10T09:46:15.191Z,82784
2023-04-10T09:47:15.846Z,96416
2023-04-10T09:48:16.441Z,113280
2023-04-10T09:49:17.052Z,114432
2023-04-10T09:50:17.645Z,96448
2023-04-10T09:51:18.246Z,78176
2023-04-10T09:52:18.886Z,69536
2023-04-10T09:53:19.485Z,74752
2023-04-10T09:54:20.071Z,80448
2023-04-10T09:55:20.692Z,79808
2023-04-10T09:56:21.313Z,74816
2023-04-10T09:57:21.913Z,69952
2023-04-10T09:58:22.515Z,78144
2023-04-10T09:59:23.116Z,86816
2023-04-10T10:00:23.719Z,91392
2023-04-10T10:01:24.423Z,93216
2023-04-10T10:02:25.143Z,88160
2023-04-10T10:03:25.956Z,86464
2023-04-10T10:04:26.613Z,92992
2023-04-10T10:05:27.188Z,105216
2023-04-10T10:06:27.791Z,116832
2023-04-10T10:07:28.414Z,118624
2023-04-10T10:08:28.996Z,106944
2023-04-10T10:09:29.612Z,88544
2023-04-10T10:10:30.224Z,79424
2023-04-10T10:11:30.809Z,86048
2023-04-10T10:12:31.419Z,103040
2023-04-10T10:13:32.022Z,108800
2023-04-10T10:14:32.617Z,94720
2023-04-10T10:15:33.226Z,81376
2023-04-10T10:16:33.873Z,72576
2023-04-10T10:17:34.466Z,73664
2023-04-10T10:18:35.038Z,80480
2023-04-10T10:19:35.647Z,92064
2023-04-10T10:20:36.840Z,93376
2023-04-10T10:21:37.507Z,84928
2023-04-10T10:22:38.101Z,82592
2023-04-10T10:23:38.705Z,84544
2023-04-10T10:24:39.300Z,82016
2023-04-10T10:25:39.920Z,74656
2023-04-10T10:26:40.521Z,67712
2023-04-10T10:27:41.120Z,71680
2023-04-10T10:28:41.722Z,79456
2023-04-10T10:29:42.322Z,94368
2023-04-10T10:30:42.926Z,101952
2023-04-10T10:31:43.598Z,92480
2023-04-10T10:32:44.219Z,80096
2023-04-10T10:33:44.799Z,77632
2023-04-10T10:34:45.422Z,87360
2023-04-10T10:35:46.024Z,99008
2023-04-10T10:36:46.676Z,105536
2023-04-10T10:37:47.246Z,100096
2023-04-10T10:38:47.866Z,92992
2023-04-10T10:39:48.532Z,88512
2023-04-10T10:40:49.141Z,84000
2023-04-10T10:41:49.735Z,91360
2023-04-10T10:42:50.337Z,94240
2023-04-10T10:43:50.956Z,96544
2023-04-10T10:44:51.577Z,97888
2023-04-10T10:45:52.248Z,101984
2023-04-10T10:46:52.830Z,75680
2023-04-10T10:47:53.559Z,78752
2023-04-10T10:48:54.220Z,76512
2023-04-10T10:49:54.872Z,58592
2023-04-10T10:50:55.462Z,61792
2023-04-10T10:51:56.065Z,63872
2023-04-10T10:52:56.667Z,70176
2023-04-10T10:53:57.293Z,72608
2023-04-10T10:54:59.647Z,84352
2023-04-10T10:55:59.506Z,94848
2023-04-10T10:57:00.113Z,100064
2023-04-10T10:58:00.708Z,105248
2023-04-10T10:59:01.311Z,106752
2023-04-10T11:00:01.912Z,115104
2023-04-10T11:01:02.544Z,106784
2023-04-10T11:02:03.275Z,86720
2023-04-10T11:03:03.975Z,69184
2023-04-10T11:04:04.797Z,70784
2023-04-10T11:05:05.452Z,89248
2023-04-10T11:06:06.051Z,111904
2023-04-10T11:07:06.660Z,124032
2023-04-10T11:08:07.276Z,111264
2023-04-10T11:09:07.876Z,89344
2023-04-10T11:10:08.475Z,72928
2023-04-10T11:11:09.081Z,68544
2023-04-10T11:12:09.700Z,75008
2023-04-10T11:13:10.323Z,84640
2023-04-10T11:14:10.922Z,90816
2023-04-10T11:15:11.536Z,86848
2023-04-10T11:16:12.173Z,73856
2023-04-10T11:17:12.750Z,71616
2023-04-10T11:18:13.346Z,69568
2023-04-10T11:19:15.842Z,70400
2023-04-10T11:20:15.624Z,76288
2023-04-10T11:21:16.178Z,71296
2023-04-10T11:22:16.780Z,76512
2023-04-10T11:23:17.376Z,69248
2023-04-10T11:24:17.980Z,69056
2023-04-10T11:25:18.581Z,71072
2023-04-10T11:26:19.181Z,70176
2023-04-10T11:27:19.785Z,71040
2023-04-10T11:28:20.403Z,70624
2023-04-10T11:29:21.009Z,75584
2023-04-10T11:30:21.603Z,81408
2023-04-10T11:31:22.392Z,68928
2023-04-10T11:32:22.850Z,79328
2023-04-10T11:33:23.440Z,94048
2023-04-10T11:34:24.058Z,109568
2023-04-10T11:35:24.718Z,108544
2023-04-10T11:36:25.272Z,97920
2023-04-10T11:37:25.872Z,84960
2023-04-10T11:38:26.475Z,75040
2023-04-10T11:39:27.074Z,74112
2023-04-10T11:40:27.676Z,82624
2023-04-10T11:41:28.278Z,89472
2023-04-10T11:42:28.876Z,84736
2023-04-10T11:43:29.480Z,77408
2023-04-10T11:44:30.108Z,73472
2023-04-10T11:45:30.718Z,69760
2023-04-10T11:46:31.416Z,75968
2023-04-10T11:47:32.024Z,75712
2023-04-10T11:48:32.637Z,76800
2023-04-10T11:49:33.232Z,71776
2023-04-10T11:50:33.846Z,69472
2023-04-10T11:51:34.458Z,65984
2023-04-10T11:52:35.048Z,60096
2023-04-10T11:53:35.649Z,59264
2023-04-10T11:54:36.248Z,62336
2023-04-10T11:55:36.852Z,61728
2023-04-10T11:56:37.458Z,58400
2023-04-10T11:57:38.063Z,55392
2023-04-10T11:58:38.662Z,56960
2023-04-10T11:59:39.265Z,56224
2023-04-10T12:00:39.867Z,55808
2023-04-10T12:01:42.785Z,58048
2023-04-10T12:02:42.230Z,58784
2023-04-10T12:03:42.997Z,57248
2023-04-10T12:04:43.980Z,55904
2023-04-10T12:05:44.250Z,54592
2023-04-10T12:06:44.851Z,53792
2023-04-10T12:07:45.454Z,53152
2023-04-10T12:08:46.078Z,53184
2023-04-10T12:09:46.678Z,49888
2023-04-10T12:10:47.276Z,49088
2023-04-10T12:11:47.877Z,48352
2023-04-10T12:12:48.477Z,49632
2023-04-10T12:13:49.086Z,49280
2023-04-10T12:14:49.681Z,51520
2023-04-10T12:15:50.440Z,51072
2023-04-10T12:16:50.901Z,54368
2023-04-10T12:17:51.511Z,56416
2023-04-10T12:18:52.551Z,60128
2023-04-10T12:19:53.539Z,59904
2023-04-10T12:20:54.142Z,56928
2023-04-10T12:21:54.753Z,54720
2023-04-10T12:22:55.341Z,55712
2023-04-10T12:23:55.941Z,60192
2023-04-10T12:24:56.539Z,67456
2023-04-10T12:25:57.140Z,69952
2023-04-10T12:26:59.033Z,65792
2023-04-10T12:27:59.335Z,62368
2023-04-10T12:28:59.932Z,62304
2023-04-10T12:30:00.541Z,63360
2023-04-10T12:31:01.166Z,66208
2023-04-10T12:32:01.750Z,73472
2023-04-10T12:33:02.427Z,80224
2023-04-10T12:34:02.981Z,85504
2023-04-10T12:35:03.589Z,81568
2023-04-10T12:36:04.231Z,76000
2023-04-10T12:37:04.808Z,75360
2023-04-10T12:38:05.409Z,71520
2023-04-10T12:39:06.010Z,70816
2023-04-10T12:40:06.633Z,70880
2023-04-10T12:41:07.251Z,70976
2023-04-10T12:42:07.859Z,67488
2023-04-10T12:43:08.433Z,70848
2023-04-10T12:44:09.053Z,75072
2023-04-10T12:45:09.653Z,81088
2023-04-10T12:46:10.305Z,87904
2023-04-10T12:47:10.867Z,94336
2023-04-10T12:48:11.470Z,95328
2023-04-10T12:49:12.070Z,75968
2023-04-10T12:50:12.692Z,93376
2023-04-10T12:51:13.294Z,89792
2023-04-10T12:52:13.897Z,76480
2023-04-10T12:53:15.153Z,89088
2023-04-10T12:54:15.770Z,92896
2023-04-10T12:55:16.399Z,89120
2023-04-10T12:56:16.994Z,88608
2023-04-10T12:57:17.593Z,90272
2023-04-10T12:58:18.306Z,86016
2023-04-10T12:59:18.872Z,79136
2023-04-10T13:00:19.474Z,76352
2023-04-10T13:01:20.138Z,70368
2023-04-10T13:02:20.791Z,66016
2023-04-10T13:03:21.635Z,71136
2023-04-10T13:04:22.115Z,74080
2023-04-10T13:05:22.841Z,68480
2023-04-10T13:06:23.417Z,69920
2023-04-10T13:07:24.018Z,70752
2023-04-10T13:08:24.634Z,71488
2023-04-10T13:09:25.234Z,76576
2023-04-10T13:10:25.837Z,81056
2023-04-10T13:11:26.437Z,78816
2023-04-10T13:12:27.061Z,75200
2023-04-10T13:13:27.668Z,65824
2023-04-10T13:14:28.257Z,68000
2023-04-10T13:15:28.861Z,77856
2023-04-10T13:16:29.522Z,91136
2023-04-10T13:17:30.164Z,99296
2023-04-10T13:18:30.754Z,87680
2023-04-10T13:19:31.356Z,74144
2023-04-10T13:20:31.959Z,68096
2023-04-10T13:21:32.565Z,68544
2023-04-10T13:22:33.153Z,75392
2023-04-10T13:23:33.759Z,87360
2023-04-10T13:24:34.381Z,107456
2023-04-10T13:25:34.987Z,121120
2023-04-10T13:26:35.589Z,114560
2023-04-10T13:27:36.209Z,107328
2023-04-10T13:28:36.813Z,110016
2023-04-10T13:29:37.408Z,117760
2023-04-10T13:30:38.014Z,125792
2023-04-10T13:31:38.639Z,122368
2023-04-10T13:32:39.299Z,124960
2023-04-10T13:33:39.837Z,115712
2023-04-10T13:34:40.438Z,110208
2023-04-10T13:35:41.066Z,104064
2023-04-10T13:36:41.784Z,93600
2023-04-10T13:37:42.383Z,85376